sensor_id;sensor_type;location;lat;lon;timestamp;temperature;humidity
4896;DHT22;2463;49.948;8.472;2023-07-22T00:02:24;17.50;99.90
4896;DHT22;2463;49.948;8.472;2023-07-22T00:04:51;17.40;99.90
4896;DHT22;2463;49.948;8.472;2023-07-22T00:07:18;17.40;99.90
4896;DHT22;2463;49.948;8.472;2023-07-22T00:09:45;17.50;99.90
4896;DHT22;2463;49.948;8.472;2023-07-22T00:12:12;17.50;99.90
4896;DHT22;2463;49.948;8.472;2023-07-22T00:14:40;17.40;99.90
4896;DHT22;2463;49.948;8.472;2023-07-22T00:17:08;17.40;99.90
4896;DHT22;2463;49.948;8.472;2023-07-22T00:19:35;17.40;99.90
4896;DHT22;2463;49.948;8.472;2023-07-22T00:22:01;17.40;99.90
4896;DHT22;2463;49.948;8.472;2023-07-22T00:24:28;17.30;99.90
4896;DHT22;2463;49.948;8.472;2023-07-22T00:26:55;17.20;99.90
4896;DHT22;2463;49.948;8.472;2023-07-22T00:29:22;17.20;99.90
4896;DHT22;2463;49.948;8.472;2023-07-22T00:31:49;17.20;99.90
4896;DHT22;2463;49.948;8.472;2023-07-22T00:34:16;17.20;99.90
4896;DHT22;2463;49.948;8.472;2023-07-22T00:36:43;17.20;99.90
4896;DHT22;2463;49.948;8.472;2023-07-22T00:39:10;17.20;99.90
4896;DHT22;2463;49.948;8.472;2023-07-22T00:41:40;17.20;99.90
4896;DHT22;2463;49.948;8.472;2023-07-22T00:44:09;17.10;99.90
4896;DHT22;2463;49.948;8.472;2023-07-22T00:46:36;17.10;99.90
4896;DHT22;2463;49.948;8.472;2023-07-22T00:49:05;17.00;99.90
4896;DHT22;2463;49.948;8.472;2023-07-22T00:51:33;17.00;99.90
4896;DHT22;2463;49.948;8.472;2023-07-22T00:53:59;17.00;99.90
4896;DHT22;2463;49.948;8.472;2023-07-22T00:56:26;17.00;99.90
4896;DHT22;2463;49.948;8.472;2023-07-22T00:58:55;17.00;99.90
4896;DHT22;2463;49.948;8.472;2023-07-22T01:01:22;16.90;99.90
4896;DHT22;2463;49.948;8.472;2023-07-22T01:03:48;16.90;99.90
4896;DHT22;2463;49.948;8.472;2023-07-22T01:06:15;16.90;99.90
4896;DHT22;2463;49.948;8.472;2023-07-22T01:08:44;16.90;99.90
4896;DHT22;2463;49.948;8.472;2023-07-22T01:11:14;16.90;99.90
4896;DHT22;2463;49.948;8.472;2023-07-22T01:13:40;16.80;99.90
4896;DHT22;2463;49.948;8.472;2023-07-22T01:16:07;16.80;99.90
4896;DHT22;2463;49.948;8.472;2023-07-22T01:18:34;16.80;99.90
4896;DHT22;2463;49.948;8.472;2023-07-22T01:21:02;16.80;99.90
4896;DHT22;2463;49.948;8.472;2023-07-22T01:23:28;16.90;99.90
4896;DHT22;2463;49.948;8.472;2023-07-22T01:25:56;16.80;99.90
4896;DHT22;2463;49.948;8.472;2023-07-22T01:28:23;16.90;99.90
4896;DHT22;2463;49.948;8.472;2023-07-22T01:30:49;16.80;99.90
4896;DHT22;2463;49.948;8.472;2023-07-22T01:33:16;16.70;99.90
4896;DHT22;2463;49.948;8.472;2023-07-22T01:35:43;16.70;99.90
4896;DHT22;2463;49.948;8.472;2023-07-22T01:38:09;16.70;99.90
4896;DHT22;2463;49.948;8.472;2023-07-22T01:40:36;16.60;99.90
4896;DHT22;2463;49.948;8.472;2023-07-22T01:43:03;16.60;99.90
4896;DHT22;2463;49.948;8.472;2023-07-22T01:45:29;16.50;99.90
4896;DHT22;2463;49.948;8.472;2023-07-22T01:47:56;16.30;99.90
4896;DHT22;2463;49.948;8.472;2023-07-22T01:50:23;16.30;99.90
4896;DHT22;2463;49.948;8.472;2023-07-22T01:52:50;16.20;99.90
4896;DHT22;2463;49.948;8.472;2023-07-22T01:55:16;16.10;99.90
4896;DHT22;2463;49.948;8.472;2023-07-22T01:57:44;16.10;99.90
4896;DHT22;2463;49.948;8.472;2023-07-22T02:00:12;16.10;99.90
4896;DHT22;2463;49.948;8.472;2023-07-22T02:02:39;16.00;99.90
4896;DHT22;2463;49.948;8.472;2023-07-22T02:05:06;15.90;99.90
4896;DHT22;2463;49.948;8.472;2023-07-22T02:07:33;15.80;99.90
4896;DHT22;2463;49.948;8.472;2023-07-22T02:10:00;15.70;99.90
4896;DHT22;2463;49.948;8.472;2023-07-22T02:12:26;15.70;99.90
4896;DHT22;2463;49.948;8.472;2023-07-22T02:14:53;15.60;99.90
4896;DHT22;2463;49.948;8.472;2023-07-22T02:17:20;15.60;99.90
4896;DHT22;2463;49.948;8.472;2023-07-22T02:19:47;15.60;99.90
4896;DHT22;2463;49.948;8.472;2023-07-22T02:22:13;15.50;99.90
4896;DHT22;2463;49.948;8.472;2023-07-22T02:24:40;15.40;99.90
4896;DHT22;2463;49.948;8.472;2023-07-22T02:27:07;15.30;99.90
4896;DHT22;2463;49.948;8.472;2023-07-22T02:29:36;15.40;99.90
4896;DHT22;2463;49.948;8.472;2023-07-22T02:32:04;15.30;99.90
4896;DHT22;2463;49.948;8.472;2023-07-22T02:34:31;15.30;99.90
4896;DHT22;2463;49.948;8.472;2023-07-22T02:36:57;15.20;99.90
4896;DHT22;2463;49.948;8.472;2023-07-22T02:39:24;15.20;99.90
4896;DHT22;2463;49.948;8.472;2023-07-22T02:41:51;15.20;99.90
4896;DHT22;2463;49.948;8.472;2023-07-22T02:44:17;15.20;99.90
4896;DHT22;2463;49.948;8.472;2023-07-22T02:46:44;15.10;99.90
4896;DHT22;2463;49.948;8.472;2023-07-22T02:49:11;15.00;99.90
4896;DHT22;2463;49.948;8.472;2023-07-22T02:51:37;15.00;99.90
4896;DHT22;2463;49.948;8.472;2023-07-22T02:54:04;15.00;99.90
4896;DHT22;2463;49.948;8.472;2023-07-22T02:56:31;15.00;99.90
4896;DHT22;2463;49.948;8.472;2023-07-22T02:58:58;14.90;99.90
4896;DHT22;2463;49.948;8.472;2023-07-22T03:01:24;14.90;99.90
4896;DHT22;2463;49.948;8.472;2023-07-22T03:03:51;14.80;99.90
4896;DHT22;2463;49.948;8.472;2023-07-22T03:06:18;14.70;99.90
4896;DHT22;2463;49.948;8.472;2023-07-22T03:08:45;14.50;99.90
4896;DHT22;2463;49.948;8.472;2023-07-22T03:11:12;14.50;99.90
4896;DHT22;2463;49.948;8.472;2023-07-22T03:13:38;14.50;99.90
4896;DHT22;2463;49.948;8.472;2023-07-22T03:16:05;14.50;99.90
4896;DHT22;2463;49.948;8.472;2023-07-22T03:18:32;14.40;99.90
4896;DHT22;2463;49.948;8.472;2023-07-22T03:20:58;14.30;99.90
4896;DHT22;2463;49.948;8.472;2023-07-22T03:23:25;14.20;99.90
4896;DHT22;2463;49.948;8.472;2023-07-22T03:25:52;14.20;99.90
4896;DHT22;2463;49.948;8.472;2023-07-22T03:28:19;14.30;99.90
4896;DHT22;2463;49.948;8.472;2023-07-22T03:30:45;14.20;99.90
4896;DHT22;2463;49.948;8.472;2023-07-22T03:33:12;14.20;99.90
4896;DHT22;2463;49.948;8.472;2023-07-22T03:35:39;14.20;99.90
4896;DHT22;2463;49.948;8.472;2023-07-22T03:38:07;14.30;99.90
4896;DHT22;2463;49.948;8.472;2023-07-22T03:40:34;14.10;99.90
4896;DHT22;2463;49.948;8.472;2023-07-22T03:43:01;14.00;99.90
4896;DHT22;2463;49.948;8.472;2023-07-22T03:45:28;14.00;99.90
4896;DHT22;2463;49.948;8.472;2023-07-22T03:47:59;13.90;99.90
4896;DHT22;2463;49.948;8.472;2023-07-22T03:50:27;13.90;99.90
4896;DHT22;2463;49.948;8.472;2023-07-22T03:52:54;13.90;99.90
4896;DHT22;2463;49.948;8.472;2023-07-22T03:55:20;13.90;99.90
4896;DHT22;2463;49.948;8.472;2023-07-22T03:57:47;14.00;99.90
4896;DHT22;2463;49.948;8.472;2023-07-22T04:00:14;13.90;99.90
4896;DHT22;2463;49.948;8.472;2023-07-22T04:02:41;13.80;99.90
4896;DHT22;2463;49.948;8.472;2023-07-22T04:05:08;13.70;99.90
4896;DHT22;2463;49.948;8.472;2023-07-22T04:07:35;13.70;99.90
4896;DHT22;2463;49.948;8.472;2023-07-22T04:10:02;13.60;99.90
4896;DHT22;2463;49.948;8.472;2023-07-22T04:12:30;13.50;99.90
4896;DHT22;2463;49.948;8.472;2023-07-22T04:14:56;13.60;99.90
4896;DHT22;2463;49.948;8.472;2023-07-22T04:17:23;13.60;99.90
4896;DHT22;2463;49.948;8.472;2023-07-22T04:19:53;13.60;99.90
4896;DHT22;2463;49.948;8.472;2023-07-22T04:22:23;13.60;99.90
4896;DHT22;2463;49.948;8.472;2023-07-22T04:24:49;13.60;99.90
4896;DHT22;2463;49.948;8.472;2023-07-22T04:27:17;13.70;99.90
4896;DHT22;2463;49.948;8.472;2023-07-22T04:29:44;13.80;99.90
4896;DHT22;2463;49.948;8.472;2023-07-22T04:32:10;13.80;99.90
4896;DHT22;2463;49.948;8.472;2023-07-22T04:34:37;13.80;99.90
4896;DHT22;2463;49.948;8.472;2023-07-22T04:37:04;13.80;99.90
4896;DHT22;2463;49.948;8.472;2023-07-22T04:39:31;13.80;99.90
4896;DHT22;2463;49.948;8.472;2023-07-22T04:41:58;13.80;99.90
4896;DHT22;2463;49.948;8.472;2023-07-22T04:44:25;13.80;99.90
4896;DHT22;2463;49.948;8.472;2023-07-22T04:46:51;13.90;99.90
4896;DHT22;2463;49.948;8.472;2023-07-22T04:49:18;13.90;99.90
4896;DHT22;2463;49.948;8.472;2023-07-22T04:51:46;14.00;99.90
4896;DHT22;2463;49.948;8.472;2023-07-22T04:54:13;14.00;99.90
4896;DHT22;2463;49.948;8.472;2023-07-22T04:56:41;14.10;99.90
4896;DHT22;2463;49.948;8.472;2023-07-22T04:59:08;14.20;99.90
4896;DHT22;2463;49.948;8.472;2023-07-22T05:01:35;14.20;99.90
4896;DHT22;2463;49.948;8.472;2023-07-22T05:04:02;14.30;99.90
4896;DHT22;2463;49.948;8.472;2023-07-22T05:06:30;14.30;99.90
4896;DHT22;2463;49.948;8.472;2023-07-22T05:08:56;14.40;99.90
4896;DHT22;2463;49.948;8.472;2023-07-22T05:11:23;14.40;99.90
4896;DHT22;2463;49.948;8.472;2023-07-22T05:13:50;14.50;99.90
4896;DHT22;2463;49.948;8.472;2023-07-22T05:16:17;14.60;99.90
4896;DHT22;2463;49.948;8.472;2023-07-22T05:18:44;14.70;99.90
4896;DHT22;2463;49.948;8.472;2023-07-22T05:21:11;14.70;99.90
4896;DHT22;2463;49.948;8.472;2023-07-22T05:23:38;14.80;99.90
4896;DHT22;2463;49.948;8.472;2023-07-22T05:26:05;14.90;99.90
4896;DHT22;2463;49.948;8.472;2023-07-22T05:28:32;15.00;99.90
4896;DHT22;2463;49.948;8.472;2023-07-22T05:30:58;13.80;99.90
4896;DHT22;2463;49.948;8.472;2023-07-22T05:33:25;15.20;99.90
4896;DHT22;2463;49.948;8.472;2023-07-22T05:35:52;15.30;99.90
4896;DHT22;2463;49.948;8.472;2023-07-22T05:38:19;15.40;99.90
4896;DHT22;2463;49.948;8.472;2023-07-22T05:40:45;15.50;99.90
4896;DHT22;2463;49.948;8.472;2023-07-22T05:43:12;15.60;99.90
4896;DHT22;2463;49.948;8.472;2023-07-22T05:45:39;15.70;99.90
4896;DHT22;2463;49.948;8.472;2023-07-22T05:48:05;15.80;99.90
4896;DHT22;2463;49.948;8.472;2023-07-22T05:50:32;15.90;99.90
4896;DHT22;2463;49.948;8.472;2023-07-22T05:52:59;16.00;99.90
4896;DHT22;2463;49.948;8.472;2023-07-22T05:55:26;16.20;99.90
4896;DHT22;2463;49.948;8.472;2023-07-22T05:57:53;16.30;99.90
4896;DHT22;2463;49.948;8.472;2023-07-22T06:00:20;16.40;99.90
4896;DHT22;2463;49.948;8.472;2023-07-22T06:02:48;16.50;99.90
4896;DHT22;2463;49.948;8.472;2023-07-22T06:05:15;16.70;99.90
4896;DHT22;2463;49.948;8.472;2023-07-22T06:07:42;16.80;99.90
4896;DHT22;2463;49.948;8.472;2023-07-22T06:10:09;17.00;99.90
4896;DHT22;2463;49.948;8.472;2023-07-22T06:12:36;17.20;99.90
4896;DHT22;2463;49.948;8.472;2023-07-22T06:15:04;17.50;99.90
4896;DHT22;2463;49.948;8.472;2023-07-22T06:17:31;17.60;99.90
4896;DHT22;2463;49.948;8.472;2023-07-22T06:19:57;17.80;99.90
4896;DHT22;2463;49.948;8.472;2023-07-22T06:22:24;18.10;99.90
4896;DHT22;2463;49.948;8.472;2023-07-22T06:24:51;18.20;99.90
4896;DHT22;2463;49.948;8.472;2023-07-22T06:27:18;18.40;99.90
4896;DHT22;2463;49.948;8.472;2023-07-22T06:29:45;18.50;99.90
4896;DHT22;2463;49.948;8.472;2023-07-22T06:32:12;18.70;99.90
4896;DHT22;2463;49.948;8.472;2023-07-22T06:34:38;18.80;99.90
4896;DHT22;2463;49.948;8.472;2023-07-22T06:37:05;19.00;99.90
4896;DHT22;2463;49.948;8.472;2023-07-22T06:39:32;19.10;99.90
4896;DHT22;2463;49.948;8.472;2023-07-22T06:41:59;19.20;99.90
4896;DHT22;2463;49.948;8.472;2023-07-22T06:44:25;19.30;99.90
4896;DHT22;2463;49.948;8.472;2023-07-22T06:46:52;19.40;99.90
4896;DHT22;2463;49.948;8.472;2023-07-22T06:49:19;19.50;99.90
4896;DHT22;2463;49.948;8.472;2023-07-22T06:51:46;19.60;99.90
4896;DHT22;2463;49.948;8.472;2023-07-22T06:54:12;18.60;99.90
4896;DHT22;2463;49.948;8.472;2023-07-22T06:56:39;19.90;99.90
4896;DHT22;2463;49.948;8.472;2023-07-22T06:59:06;20.10;99.90
4896;DHT22;2463;49.948;8.472;2023-07-22T07:01:33;21.40;99.90
4896;DHT22;2463;49.948;8.472;2023-07-22T07:03:59;20.20;99.90
4896;DHT22;2463;49.948;8.472;2023-07-22T07:06:28;20.40;99.90
4896;DHT22;2463;49.948;8.472;2023-07-22T07:08:55;20.60;99.90
4896;DHT22;2463;49.948;8.472;2023-07-22T07:11:22;20.70;99.90
4896;DHT22;2463;49.948;8.472;2023-07-22T07:13:49;21.00;99.90
4896;DHT22;2463;49.948;8.472;2023-07-22T07:16:27;21.20;99.90
4896;DHT22;2463;49.948;8.472;2023-07-22T07:18:55;21.40;99.90
4896;DHT22;2463;49.948;8.472;2023-07-22T07:21:22;21.80;99.90
4896;DHT22;2463;49.948;8.472;2023-07-22T07:23:50;22.20;99.90
4896;DHT22;2463;49.948;8.472;2023-07-22T07:26:19;23.00;99.90
4896;DHT22;2463;49.948;8.472;2023-07-22T07:28:46;24.00;99.90
4896;DHT22;2463;49.948;8.472;2023-07-22T07:31:13;24.90;99.90
4896;DHT22;2463;49.948;8.472;2023-07-22T07:33:40;25.70;99.90
4896;DHT22;2463;49.948;8.472;2023-07-22T07:36:07;26.40;99.90
4896;DHT22;2463;49.948;8.472;2023-07-22T07:38:33;26.90;99.90
4896;DHT22;2463;49.948;8.472;2023-07-22T07:41:03;27.10;99.90
4896;DHT22;2463;49.948;8.472;2023-07-22T07:43:30;27.30;99.90
4896;DHT22;2463;49.948;8.472;2023-07-22T07:49:09;27.60;99.90
4896;DHT22;2463;49.948;8.472;2023-07-22T07:51:36;27.50;99.90
4896;DHT22;2463;49.948;8.472;2023-07-22T07:54:02;27.20;99.50
4896;DHT22;2463;49.948;8.472;2023-07-22T07:56:30;26.50;97.80
4896;DHT22;2463;49.948;8.472;2023-07-22T07:58:57;26.20;99.90
4896;DHT22;2463;49.948;8.472;2023-07-22T08:01:24;26.30;99.90
4896;DHT22;2463;49.948;8.472;2023-07-22T08:03:51;26.60;99.90
4896;DHT22;2463;49.948;8.472;2023-07-22T08:06:18;26.80;99.90
4896;DHT22;2463;49.948;8.472;2023-07-22T08:08:46;27.20;99.90
4896;DHT22;2463;49.948;8.472;2023-07-22T08:11:13;27.20;99.20
4896;DHT22;2463;49.948;8.472;2023-07-22T08:13:42;27.30;98.80
4896;DHT22;2463;49.948;8.472;2023-07-22T08:16:10;27.50;99.10
4896;DHT22;2463;49.948;8.472;2023-07-22T08:18:37;27.50;98.40
4896;DHT22;2463;49.948;8.472;2023-07-22T08:21:05;27.40;97.20
4896;DHT22;2463;49.948;8.472;2023-07-22T08:23:36;27.30;97.20
4896;DHT22;2463;49.948;8.472;2023-07-22T08:26:04;26.90;96.50
4896;DHT22;2463;49.948;8.472;2023-07-22T08:28:34;26.60;97.60
4896;DHT22;2463;49.948;8.472;2023-07-22T08:31:01;26.40;98.50
4896;DHT22;2463;49.948;8.472;2023-07-22T08:33:28;26.40;97.30
4896;DHT22;2463;49.948;8.472;2023-07-22T08:36:08;26.40;98.40
4896;DHT22;2463;49.948;8.472;2023-07-22T08:38:35;26.50;98.20
4896;DHT22;2463;49.948;8.472;2023-07-22T08:41:01;26.60;98.40
4896;DHT22;2463;49.948;8.472;2023-07-22T08:43:29;26.80;97.30
4896;DHT22;2463;49.948;8.472;2023-07-22T08:46:00;27.00;98.50
4896;DHT22;2463;49.948;8.472;2023-07-22T08:48:30;27.30;97.70
4896;DHT22;2463;49.948;8.472;2023-07-22T08:51:03;27.50;97.20
4896;DHT22;2463;49.948;8.472;2023-07-22T08:53:31;27.70;97.40
4896;DHT22;2463;49.948;8.472;2023-07-22T08:56:00;27.90;97.00
4896;DHT22;2463;49.948;8.472;2023-07-22T08:58:28;28.20;97.00
4896;DHT22;2463;49.948;8.472;2023-07-22T09:00:56;28.50;96.80
4896;DHT22;2463;49.948;8.472;2023-07-22T09:03:24;28.70;95.50
4896;DHT22;2463;49.948;8.472;2023-07-22T09:05:51;28.90;94.90
4896;DHT22;2463;49.948;8.472;2023-07-22T09:08:18;28.60;94.70
4896;DHT22;2463;49.948;8.472;2023-07-22T09:10:45;28.30;96.10
4896;DHT22;2463;49.948;8.472;2023-07-22T09:13:15;28.10;95.80
4896;DHT22;2463;49.948;8.472;2023-07-22T09:15:42;28.10;96.20
4896;DHT22;2463;49.948;8.472;2023-07-22T09:18:09;27.90;96.60
4896;DHT22;2463;49.948;8.472;2023-07-22T09:20:36;27.70;95.90
4896;DHT22;2463;49.948;8.472;2023-07-22T09:23:02;27.50;96.20
4896;DHT22;2463;49.948;8.472;2023-07-22T09:25:40;27.50;96.60
4896;DHT22;2463;49.948;8.472;2023-07-22T09:28:06;27.60;97.10
4896;DHT22;2463;49.948;8.472;2023-07-22T09:30:35;27.40;96.50
4896;DHT22;2463;49.948;8.472;2023-07-22T09:33:04;26.80;95.50
4896;DHT22;2463;49.948;8.472;2023-07-22T09:35:53;26.30;96.20
4896;DHT22;2463;49.948;8.472;2023-07-22T09:38:25;25.90;97.20
4896;DHT22;2463;49.948;8.472;2023-07-22T09:40:53;25.50;96.50
4896;DHT22;2463;49.948;8.472;2023-07-22T09:43:22;25.20;97.30
4896;DHT22;2463;49.948;8.472;2023-07-22T09:45:50;25.20;97.90
4896;DHT22;2463;49.948;8.472;2023-07-22T09:48:17;25.30;98.80
4896;DHT22;2463;49.948;8.472;2023-07-22T09:50:44;25.40;98.20
4896;DHT22;2463;49.948;8.472;2023-07-22T09:53:15;25.40;97.90
4896;DHT22;2463;49.948;8.472;2023-07-22T09:55:43;25.50;98.20
4896;DHT22;2463;49.948;8.472;2023-07-22T09:58:10;25.50;96.90
4896;DHT22;2463;49.948;8.472;2023-07-22T10:00:42;25.50;97.50
4896;DHT22;2463;49.948;8.472;2023-07-22T10:03:14;25.40;97.50
4896;DHT22;2463;49.948;8.472;2023-07-22T10:05:45;25.50;97.40
4896;DHT22;2463;49.948;8.472;2023-07-22T10:08:18;25.60;98.60
4896;DHT22;2463;49.948;8.472;2023-07-22T10:10:46;26.00;97.90
4896;DHT22;2463;49.948;8.472;2023-07-22T10:13:13;26.50;98.50
4896;DHT22;2463;49.948;8.472;2023-07-22T10:15:41;26.90;96.60
4896;DHT22;2463;49.948;8.472;2023-07-22T10:18:09;27.30;97.20
4896;DHT22;2463;49.948;8.472;2023-07-22T10:20:37;27.80;95.80
4896;DHT22;2463;49.948;8.472;2023-07-22T10:23:05;28.20;95.10
4896;DHT22;2463;49.948;8.472;2023-07-22T10:25:34;28.40;94.60
4896;DHT22;2463;49.948;8.472;2023-07-22T10:28:02;28.40;95.00
4896;DHT22;2463;49.948;8.472;2023-07-22T10:30:29;28.40;94.40
4896;DHT22;2463;49.948;8.472;2023-07-22T10:32:56;28.40;93.60
4896;DHT22;2463;49.948;8.472;2023-07-22T10:35:39;28.30;93.00
4896;DHT22;2463;49.948;8.472;2023-07-22T10:38:09;27.90;92.50
4896;DHT22;2463;49.948;8.472;2023-07-22T10:40:53;27.50;91.60
4896;DHT22;2463;49.948;8.472;2023-07-22T10:43:30;27.20;92.10
4896;DHT22;2463;49.948;8.472;2023-07-22T10:45:58;27.00;93.00
4896;DHT22;2463;49.948;8.472;2023-07-22T10:48:35;27.00;91.40
4896;DHT22;2463;49.948;8.472;2023-07-22T10:53:44;26.70;92.30
4896;DHT22;2463;49.948;8.472;2023-07-22T10:56:16;26.50;92.30
4896;DHT22;2463;49.948;8.472;2023-07-22T11:01:30;26.00;94.60
4896;DHT22;2463;49.948;8.472;2023-07-22T11:11:55;25.40;94.90
4896;DHT22;2463;49.948;8.472;2023-07-22T11:14:26;25.30;95.30
4896;DHT22;2463;49.948;8.472;2023-07-22T11:16:55;25.30;95.70
4896;DHT22;2463;49.948;8.472;2023-07-22T11:19:23;25.40;95.40
4896;DHT22;2463;49.948;8.472;2023-07-22T11:21:52;25.30;96.20
4896;DHT22;2463;49.948;8.472;2023-07-22T11:24:20;25.30;95.70
4896;DHT22;2463;49.948;8.472;2023-07-22T11:26:47;25.20;95.70
4896;DHT22;2463;49.948;8.472;2023-07-22T11:29:15;25.10;94.90
4896;DHT22;2463;49.948;8.472;2023-07-22T11:31:45;25.20;96.20
4896;DHT22;2463;49.948;8.472;2023-07-22T11:34:14;25.40;95.30
4896;DHT22;2463;49.948;8.472;2023-07-22T11:36:41;25.80;96.50
4896;DHT22;2463;49.948;8.472;2023-07-22T11:39:10;26.10;94.50
4896;DHT22;2463;49.948;8.472;2023-07-22T11:41:37;26.40;94.70
4896;DHT22;2463;49.948;8.472;2023-07-22T11:44:05;26.60;94.30
4896;DHT22;2463;49.948;8.472;2023-07-22T11:46:48;26.80;94.40
4896;DHT22;2463;49.948;8.472;2023-07-22T11:49:29;27.00;94.50
4896;DHT22;2463;49.948;8.472;2023-07-22T11:52:06;27.00;93.20
4896;DHT22;2463;49.948;8.472;2023-07-22T11:54:41;26.90;93.40
4896;DHT22;2463;49.948;8.472;2023-07-22T11:57:20;27.20;93.70
4896;DHT22;2463;49.948;8.472;2023-07-22T11:59:52;27.60;92.40
4896;DHT22;2463;49.948;8.472;2023-07-22T12:02:24;28.00;92.90
4896;DHT22;2463;49.948;8.472;2023-07-22T12:07:28;27.60;91.30
4896;DHT22;2463;49.948;8.472;2023-07-22T12:09:56;27.70;93.00
4896;DHT22;2463;49.948;8.472;2023-07-22T12:12:36;27.50;92.40
4896;DHT22;2463;49.948;8.472;2023-07-22T12:15:17;27.20;92.30
4896;DHT22;2463;49.948;8.472;2023-07-22T12:20:13;27.00;94.00
4896;DHT22;2463;49.948;8.472;2023-07-22T12:22:41;27.00;93.80
4896;DHT22;2463;49.948;8.472;2023-07-22T12:25:08;27.00;92.70
4896;DHT22;2463;49.948;8.472;2023-07-22T12:27:37;26.90;92.30
4896;DHT22;2463;49.948;8.472;2023-07-22T12:30:05;27.00;91.60
4896;DHT22;2463;49.948;8.472;2023-07-22T12:32:32;27.10;91.30
4896;DHT22;2463;49.948;8.472;2023-07-22T12:34:59;27.20;91.80
4896;DHT22;2463;49.948;8.472;2023-07-22T12:37:26;27.40;91.80
4896;DHT22;2463;49.948;8.472;2023-07-22T12:39:53;27.70;92.30
4896;DHT22;2463;49.948;8.472;2023-07-22T12:42:20;28.00;91.30
4896;DHT22;2463;49.948;8.472;2023-07-22T12:44:46;28.20;90.90
4896;DHT22;2463;49.948;8.472;2023-07-22T12:47:13;28.40;90.90
4896;DHT22;2463;49.948;8.472;2023-07-22T12:49:40;28.30;90.50
4896;DHT22;2463;49.948;8.472;2023-07-22T12:52:06;28.30;88.40
4896;DHT22;2463;49.948;8.472;2023-07-22T12:54:36;28.30;89.70
4896;DHT22;2463;49.948;8.472;2023-07-22T12:57:03;28.40;89.80
4896;DHT22;2463;49.948;8.472;2023-07-22T12:59:30;28.70;88.80
4896;DHT22;2463;49.948;8.472;2023-07-22T13:01:57;29.00;90.50
4896;DHT22;2463;49.948;8.472;2023-07-22T13:04:24;29.30;90.50
4896;DHT22;2463;49.948;8.472;2023-07-22T13:06:51;29.40;82.30
4896;DHT22;2463;49.948;8.472;2023-07-22T13:09:19;29.70;82.80
4896;DHT22;2463;49.948;8.472;2023-07-22T13:11:46;29.90;80.90
4896;DHT22;2463;49.948;8.472;2023-07-22T13:14:13;30.30;81.10
4896;DHT22;2463;49.948;8.472;2023-07-22T13:16:40;30.40;76.10
4896;DHT22;2463;49.948;8.472;2023-07-22T13:19:07;30.10;71.50
4896;DHT22;2463;49.948;8.472;2023-07-22T13:21:34;30.10;73.50
4896;DHT22;2463;49.948;8.472;2023-07-22T13:24:01;29.90;70.20
4896;DHT22;2463;49.948;8.472;2023-07-22T13:26:27;29.40;68.40
4896;DHT22;2463;49.948;8.472;2023-07-22T13:28:54;27.60;71.40
4896;DHT22;2463;49.948;8.472;2023-07-22T13:31:21;29.50;71.40
4896;DHT22;2463;49.948;8.472;2023-07-22T13:33:47;29.40;71.20
4896;DHT22;2463;49.948;8.472;2023-07-22T13:36:14;29.50;71.00
4896;DHT22;2463;49.948;8.472;2023-07-22T13:38:41;29.50;69.70
4896;DHT22;2463;49.948;8.472;2023-07-22T13:41:07;29.70;70.50
4896;DHT22;2463;49.948;8.472;2023-07-22T13:43:34;29.80;70.50
4896;DHT22;2463;49.948;8.472;2023-07-22T13:46:01;30.00;69.30
4896;DHT22;2463;49.948;8.472;2023-07-22T13:48:28;30.00;67.10
4896;DHT22;2463;49.948;8.472;2023-07-22T13:50:55;29.80;67.00
4896;DHT22;2463;49.948;8.472;2023-07-22T13:53:21;29.70;70.90
4896;DHT22;2463;49.948;8.472;2023-07-22T13:55:48;29.70;70.60
4896;DHT22;2463;49.948;8.472;2023-07-22T13:58:18;29.90;71.00
4896;DHT22;2463;49.948;8.472;2023-07-22T14:00:45;30.00;66.50
4896;DHT22;2463;49.948;8.472;2023-07-22T14:03:14;29.90;65.80
4896;DHT22;2463;49.948;8.472;2023-07-22T14:05:40;29.70;66.10
4896;DHT22;2463;49.948;8.472;2023-07-22T14:08:08;29.70;66.90
4896;DHT22;2463;49.948;8.472;2023-07-22T14:10:35;29.60;68.20
4896;DHT22;2463;49.948;8.472;2023-07-22T14:13:02;29.40;70.10
4896;DHT22;2463;49.948;8.472;2023-07-22T14:15:29;29.20;67.20
4896;DHT22;2463;49.948;8.472;2023-07-22T14:17:56;29.00;68.10
4896;DHT22;2463;49.948;8.472;2023-07-22T14:20:22;29.00;68.30
4896;DHT22;2463;49.948;8.472;2023-07-22T14:22:49;28.90;67.80
4896;DHT22;2463;49.948;8.472;2023-07-22T14:25:16;28.90;67.80
4896;DHT22;2463;49.948;8.472;2023-07-22T14:27:43;28.90;68.50
4896;DHT22;2463;49.948;8.472;2023-07-22T14:30:10;28.70;67.60
4896;DHT22;2463;49.948;8.472;2023-07-22T14:32:37;28.80;66.90
4896;DHT22;2463;49.948;8.472;2023-07-22T14:35:04;28.90;66.10
4896;DHT22;2463;49.948;8.472;2023-07-22T14:37:31;28.90;66.30
4896;DHT22;2463;49.948;8.472;2023-07-22T14:39:57;28.90;68.30
4896;DHT22;2463;49.948;8.472;2023-07-22T14:42:24;28.90;67.90
4896;DHT22;2463;49.948;8.472;2023-07-22T14:44:51;28.70;65.80
4896;DHT22;2463;49.948;8.472;2023-07-22T14:47:18;28.60;66.30
4896;DHT22;2463;49.948;8.472;2023-07-22T14:49:44;28.50;66.20
4896;DHT22;2463;49.948;8.472;2023-07-22T14:52:11;28.50;68.70
4896;DHT22;2463;49.948;8.472;2023-07-22T14:54:38;28.40;69.40
4896;DHT22;2463;49.948;8.472;2023-07-22T14:57:05;28.40;69.20
4896;DHT22;2463;49.948;8.472;2023-07-22T14:59:31;28.40;69.70
4896;DHT22;2463;49.948;8.472;2023-07-22T15:01:58;28.40;68.90
4896;DHT22;2463;49.948;8.472;2023-07-22T15:04:25;28.20;68.20
4896;DHT22;2463;49.948;8.472;2023-07-22T15:06:51;27.90;68.60
4896;DHT22;2463;49.948;8.472;2023-07-22T15:09:18;27.70;68.40
4896;DHT22;2463;49.948;8.472;2023-07-22T15:11:45;27.60;69.10
4896;DHT22;2463;49.948;8.472;2023-07-22T15:14:11;27.70;70.20
4896;DHT22;2463;49.948;8.472;2023-07-22T15:16:38;28.00;70.60
4896;DHT22;2463;49.948;8.472;2023-07-22T15:19:07;28.10;66.50
4896;DHT22;2463;49.948;8.472;2023-07-22T15:21:34;28.10;67.30
4896;DHT22;2463;49.948;8.472;2023-07-22T15:24:01;28.10;68.00
4896;DHT22;2463;49.948;8.472;2023-07-22T15:26:27;28.10;68.80
4896;DHT22;2463;49.948;8.472;2023-07-22T15:28:54;28.30;70.70
4896;DHT22;2463;49.948;8.472;2023-07-22T15:31:21;28.40;65.50
4896;DHT22;2463;49.948;8.472;2023-07-22T15:33:48;28.30;66.20
4896;DHT22;2463;49.948;8.472;2023-07-22T15:36:15;28.00;66.90
4896;DHT22;2463;49.948;8.472;2023-07-22T15:38:42;27.90;67.20
4896;DHT22;2463;49.948;8.472;2023-07-22T15:41:09;27.80;67.40
4896;DHT22;2463;49.948;8.472;2023-07-22T15:43:36;27.70;66.30
4896;DHT22;2463;49.948;8.472;2023-07-22T15:46:03;27.70;69.00
4896;DHT22;2463;49.948;8.472;2023-07-22T15:48:30;27.60;68.10
4896;DHT22;2463;49.948;8.472;2023-07-22T15:50:56;27.60;68.80
4896;DHT22;2463;49.948;8.472;2023-07-22T15:53:23;27.70;68.90
4896;DHT22;2463;49.948;8.472;2023-07-22T15:55:50;27.90;68.70
4896;DHT22;2463;49.948;8.472;2023-07-22T15:58:17;28.20;67.40
4896;DHT22;2463;49.948;8.472;2023-07-22T16:00:47;28.40;68.70
4896;DHT22;2463;49.948;8.472;2023-07-22T16:03:14;28.40;67.40
4896;DHT22;2463;49.948;8.472;2023-07-22T16:05:41;28.30;67.20
4896;DHT22;2463;49.948;8.472;2023-07-22T16:08:09;28.30;65.10
4896;DHT22;2463;49.948;8.472;2023-07-22T16:10:35;28.30;66.60
4896;DHT22;2463;49.948;8.472;2023-07-22T16:13:02;28.20;64.90
4896;DHT22;2463;49.948;8.472;2023-07-22T16:15:29;28.20;64.40
4896;DHT22;2463;49.948;8.472;2023-07-22T16:17:58;28.20;66.30
4896;DHT22;2463;49.948;8.472;2023-07-22T16:20:25;28.20;66.30
4896;DHT22;2463;49.948;8.472;2023-07-22T16:22:52;28.20;65.50
4896;DHT22;2463;49.948;8.472;2023-07-22T16:25:18;28.10;65.00
4896;DHT22;2463;49.948;8.472;2023-07-22T16:27:45;27.90;65.20